sensor_id;sensor_type;location;lat;lon;timestamp;P1;durP1;ratioP1;P2;durP2;ratioP2
68229;SDS011;55048;52.220;5.160;2022-12-29T00:02:01;4.32;;;1.23;;
68229;SDS011;55048;52.220;5.160;2022-12-29T00:04:26;2.30;;;1.23;;
68229;SDS011;55048;52.220;5.160;2022-12-29T00:06:52;2.38;;;1.10;;
68229;SDS011;55048;52.220;5.160;2022-12-29T00:09:18;1.58;;;1.17;;
68229;SDS011;55048;52.220;5.160;2022-12-29T00:11:44;1.77;;;0.98;;
68229;SDS011;55048;52.220;5.160;2022-12-29T00:14:09;1.77;;;0.98;;
68229;SDS011;55048;52.220;5.160;2022-12-29T00:16:54;1.38;;;1.00;;
68229;SDS011;55048;52.220;5.160;2022-12-29T00:19:20;2.08;;;1.00;;
68229;SDS011;55048;52.220;5.160;2022-12-29T00:22:05;1.67;;;0.90;;
68229;SDS011;55048;52.220;5.160;2022-12-29T00:24:49;2.25;;;1.00;;
68229;SDS011;55048;52.220;5.160;2022-12-29T00:27:30;1.50;;;0.85;;
68229;SDS011;55048;52.220;5.160;2022-12-29T00:30:18;0.52;;;0.50;;
68229;SDS011;55048;52.220;5.160;2022-12-29T00:33:13;1.50;;;0.68;;
68229;SDS011;55048;52.220;5.160;2022-12-29T00:36:05;0.88;;;0.70;;
68229;SDS011;55048;52.220;5.160;2022-12-29T00:38:36;1.95;;;0.80;;
68229;SDS011;55048;52.220;5.160;2022-12-29T00:41:24;2.15;;;0.90;;
68229;SDS011;55048;52.220;5.160;2022-12-29T00:44:10;0.70;;;0.57;;
68229;SDS011;55048;52.220;5.160;2022-12-29T00:46:37;2.83;;;0.80;;
68229;SDS011;55048;52.220;5.160;2022-12-29T00:49:06;1.98;;;0.90;;
68229;SDS011;55048;52.220;5.160;2022-12-29T00:51:53;1.13;;;0.65;;
68229;SDS011;55048;52.220;5.160;2022-12-29T00:54:20;2.40;;;0.80;;
68229;SDS011;55048;52.220;5.160;2022-12-29T00:56:50;0.60;;;0.55;;
68229;SDS011;55048;52.220;5.160;2022-12-29T00:59:16;2.83;;;0.57;;
68229;SDS011;55048;52.220;5.160;2022-12-29T01:01:44;1.92;;;0.52;;
68229;SDS011;55048;52.220;5.160;2022-12-29T01:04:09;1.90;;;0.70;;
68229;SDS011;55048;52.220;5.160;2022-12-29T01:06:36;1.48;;;0.60;;
68229;SDS011;55048;52.220;5.160;2022-12-29T01:09:03;1.35;;;0.60;;
68229;SDS011;55048;52.220;5.160;2022-12-29T01:11:47;5.10;;;0.70;;
68229;SDS011;55048;52.220;5.160;2022-12-29T01:14:13;5.53;;;0.65;;
68229;SDS011;55048;52.220;5.160;2022-12-29T01:16:39;7.57;;;0.60;;
68229;SDS011;55048;52.220;5.160;2022-12-29T01:19:05;2.65;;;0.52;;
68229;SDS011;55048;52.220;5.160;2022-12-29T01:21:31;1.80;;;0.70;;
68229;SDS011;55048;52.220;5.160;2022-12-29T01:23:57;1.08;;;0.50;;
68229;SDS011;55048;52.220;5.160;2022-12-29T01:26:23;1.63;;;0.70;;
68229;SDS011;55048;52.220;5.160;2022-12-29T01:28:50;2.85;;;0.70;;
68229;SDS011;55048;52.220;5.160;2022-12-29T01:31:16;1.48;;;0.52;;
68229;SDS011;55048;52.220;5.160;2022-12-29T01:33:41;1.90;;;0.60;;
68229;SDS011;55048;52.220;5.160;2022-12-29T01:36:09;0.40;;;0.40;;
68229;SDS011;55048;52.220;5.160;2022-12-29T01:38:36;0.63;;;0.50;;
68229;SDS011;55048;52.220;5.160;2022-12-29T01:41:03;3.90;;;0.60;;
68229;SDS011;55048;52.220;5.160;2022-12-29T01:46:10;3.40;;;0.60;;
68229;SDS011;55048;52.220;5.160;2022-12-29T01:48:45;0.93;;;0.60;;
68229;SDS011;55048;52.220;5.160;2022-12-29T01:51:13;1.63;;;0.73;;
68229;SDS011;55048;52.220;5.160;2022-12-29T01:53:40;2.60;;;0.80;;
68229;SDS011;55048;52.220;5.160;2022-12-29T01:56:07;0.80;;;0.50;;
68229;SDS011;55048;52.220;5.160;2022-12-29T01:58:38;0.80;;;0.45;;
68229;SDS011;55048;52.220;5.160;2022-12-29T02:01:06;1.90;;;0.55;;
68229;SDS011;55048;52.220;5.160;2022-12-29T02:03:34;1.33;;;0.60;;
68229;SDS011;55048;52.220;5.160;2022-12-29T02:06:07;2.13;;;0.70;;
68229;SDS011;55048;52.220;5.160;2022-12-29T02:08:37;1.08;;;0.80;;
68229;SDS011;55048;52.220;5.160;2022-12-29T02:11:03;1.27;;;0.50;;
68229;SDS011;55048;52.220;5.160;2022-12-29T02:13:32;1.48;;;0.55;;
68229;SDS011;55048;52.220;5.160;2022-12-29T02:24:16;1.23;;;0.40;;
68229;SDS011;55048;52.220;5.160;2022-12-29T02:32:37;1.27;;;0.50;;
68229;SDS011;55048;52.220;5.160;2022-12-29T02:40:27;1.85;;;0.50;;
68229;SDS011;55048;52.220;5.160;2022-12-29T02:45:51;1.33;;;0.50;;
68229;SDS011;55048;52.220;5.160;2022-12-29T02:51:02;2.35;;;0.57;;
68229;SDS011;55048;52.220;5.160;2022-12-29T02:53:30;1.02;;;0.52;;
68229;SDS011;55048;52.220;5.160;2022-12-29T02:56:17;2.35;;;0.40;;
68229;SDS011;55048;52.220;5.160;2022-12-29T02:58:43;2.83;;;0.47;;
68229;SDS011;55048;52.220;5.160;2022-12-29T03:04:10;2.42;;;0.30;;
68229;SDS011;55048;52.220;5.160;2022-12-29T03:06:54;2.08;;;0.20;;
68229;SDS011;55048;52.220;5.160;2022-12-29T03:09:36;1.73;;;0.40;;
68229;SDS011;55048;52.220;5.160;2022-12-29T03:15:21;5.82;;;0.40;;
68229;SDS011;55048;52.220;5.160;2022-12-29T03:18:21;5.40;;;0.40;;
68229;SDS011;55048;52.220;5.160;2022-12-29T03:23:42;3.35;;;0.38;;
68229;SDS011;55048;52.220;5.160;2022-12-29T03:26:12;7.18;;;0.60;;
68229;SDS011;55048;52.220;5.160;2022-12-29T03:28:44;3.63;;;0.43;;
68229;SDS011;55048;52.220;5.160;2022-12-29T03:31:17;2.53;;;0.25;;
68229;SDS011;55048;52.220;5.160;2022-12-29T03:33:46;5.03;;;0.40;;
68229;SDS011;55048;52.220;5.160;2022-12-29T03:36:16;4.22;;;0.52;;
68229;SDS011;55048;52.220;5.160;2022-12-29T03:39:05;2.30;;;0.30;;
68229;SDS011;55048;52.220;5.160;2022-12-29T03:41:36;4.60;;;0.40;;
68229;SDS011;55048;52.220;5.160;2022-12-29T03:44:06;3.53;;;0.45;;
68229;SDS011;55048;52.220;5.160;2022-12-29T03:46:33;6.88;;;0.60;;
68229;SDS011;55048;52.220;5.160;2022-12-29T03:48:59;3.20;;;0.35;;
68229;SDS011;55048;52.220;5.160;2022-12-29T03:51:24;1.55;;;0.30;;
68229;SDS011;55048;52.220;5.160;2022-12-29T03:53:50;6.28;;;0.50;;
68229;SDS011;55048;52.220;5.160;2022-12-29T03:56:15;1.33;;;0.30;;
68229;SDS011;55048;52.220;5.160;2022-12-29T03:58:41;8.68;;;0.30;;
68229;SDS011;55048;52.220;5.160;2022-12-29T04:01:13;6.47;;;0.35;;
68229;SDS011;55048;52.220;5.160;2022-12-29T04:03:39;1.27;;;0.20;;
68229;SDS011;55048;52.220;5.160;2022-12-29T04:06:04;4.53;;;0.38;;
68229;SDS011;55048;52.220;5.160;2022-12-29T04:08:53;3.67;;;0.30;;
68229;SDS011;55048;52.220;5.160;2022-12-29T04:11:18;3.10;;;0.38;;
68229;SDS011;55048;52.220;5.160;2022-12-29T04:13:44;2.35;;;0.40;;
68229;SDS011;55048;52.220;5.160;2022-12-29T04:16:14;2.40;;;0.30;;
68229;SDS011;55048;52.220;5.160;2022-12-29T04:18:40;0.93;;;0.20;;
68229;SDS011;55048;52.220;5.160;2022-12-29T04:21:06;4.65;;;0.60;;
68229;SDS011;55048;52.220;5.160;2022-12-29T04:23:34;3.95;;;0.30;;
68229;SDS011;55048;52.220;5.160;2022-12-29T04:26:04;4.38;;;0.30;;
68229;SDS011;55048;52.220;5.160;2022-12-29T04:28:39;6.97;;;0.45;;
68229;SDS011;55048;52.220;5.160;2022-12-29T04:31:23;4.20;;;0.40;;
68229;SDS011;55048;52.220;5.160;2022-12-29T04:33:49;5.72;;;0.43;;
68229;SDS011;55048;52.220;5.160;2022-12-29T04:36:15;4.13;;;0.40;;
68229;SDS011;55048;52.220;5.160;2022-12-29T04:38:41;3.92;;;0.40;;
68229;SDS011;55048;52.220;5.160;2022-12-29T04:41:07;3.72;;;0.40;;
68229;SDS011;55048;52.220;5.160;2022-12-29T04:43:35;4.95;;;0.40;;
68229;SDS011;55048;52.220;5.160;2022-12-29T04:46:07;4.65;;;0.68;;
68229;SDS011;55048;52.220;5.160;2022-12-29T04:48:55;2.78;;;0.50;;
68229;SDS011;55048;52.220;5.160;2022-12-29T04:51:27;6.30;;;0.50;;
68229;SDS011;55048;52.220;5.160;2022-12-29T04:53:53;3.22;;;0.52;;
68229;SDS011;55048;52.220;5.160;2022-12-29T04:56:18;3.90;;;0.50;;
68229;SDS011;55048;52.220;5.160;2022-12-29T04:58:44;3.83;;;0.40;;
68229;SDS011;55048;52.220;5.160;2022-12-29T05:01:10;3.65;;;0.68;;
68229;SDS011;55048;52.220;5.160;2022-12-29T05:03:35;8.82;;;0.50;;
68229;SDS011;55048;52.220;5.160;2022-12-29T05:06:01;6.85;;;0.47;;
68229;SDS011;55048;52.220;5.160;2022-12-29T05:08:26;4.35;;;0.50;;
68229;SDS011;55048;52.220;5.160;2022-12-29T05:10:52;4.63;;;0.77;;
68229;SDS011;55048;52.220;5.160;2022-12-29T05:13:18;5.30;;;0.68;;
68229;SDS011;55048;52.220;5.160;2022-12-29T05:15:47;4.63;;;0.50;;
68229;SDS011;55048;52.220;5.160;2022-12-29T05:18:15;13.57;;;0.57;;
68229;SDS011;55048;52.220;5.160;2022-12-29T05:20:41;7.32;;;0.80;;
68229;SDS011;55048;52.220;5.160;2022-12-29T05:23:07;5.90;;;0.73;;
68229;SDS011;55048;52.220;5.160;2022-12-29T05:25:32;4.32;;;0.40;;
68229;SDS011;55048;52.220;5.160;2022-12-29T05:28:09;3.47;;;0.45;;
68229;SDS011;55048;52.220;5.160;2022-12-29T05:30:57;6.13;;;0.55;;
68229;SDS011;55048;52.220;5.160;2022-12-29T05:33:22;3.45;;;0.47;;
68229;SDS011;55048;52.220;5.160;2022-12-29T05:35:49;3.90;;;0.57;;
68229;SDS011;55048;52.220;5.160;2022-12-29T05:38:15;6.60;;;0.65;;
68229;SDS011;55048;52.220;5.160;2022-12-29T05:40:41;8.75;;;0.80;;
68229;SDS011;55048;52.220;5.160;2022-12-29T05:43:18;6.05;;;0.80;;
68229;SDS011;55048;52.220;5.160;2022-12-29T05:46:06;11.95;;;0.65;;
68229;SDS011;55048;52.220;5.160;2022-12-29T05:48:50;6.40;;;0.60;;
68229;SDS011;55048;52.220;5.160;2022-12-29T05:51:33;8.20;;;0.70;;
68229;SDS011;55048;52.220;5.160;2022-12-29T05:53:58;9.05;;;0.88;;
68229;SDS011;55048;52.220;5.160;2022-12-29T05:56:24;8.52;;;0.85;;
68229;SDS011;55048;52.220;5.160;2022-12-29T05:58:56;7.55;;;0.50;;
68229;SDS011;55048;52.220;5.160;2022-12-29T06:01:22;9.40;;;0.70;;
68229;SDS011;55048;52.220;5.160;2022-12-29T06:03:47;4.45;;;0.50;;
68229;SDS011;55048;52.220;5.160;2022-12-29T06:06:13;10.20;;;0.70;;
68229;SDS011;55048;52.220;5.160;2022-12-29T06:08:38;8.95;;;0.95;;
68229;SDS011;55048;52.220;5.160;2022-12-29T06:11:04;7.50;;;0.60;;
68229;SDS011;55048;52.220;5.160;2022-12-29T06:13:29;6.68;;;0.73;;
68229;SDS011;55048;52.220;5.160;2022-12-29T06:15:56;12.98;;;1.00;;
68229;SDS011;55048;52.220;5.160;2022-12-29T06:18:24;9.10;;;0.90;;
68229;SDS011;55048;52.220;5.160;2022-12-29T06:20:49;7.53;;;0.57;;
68229;SDS011;55048;52.220;5.160;2022-12-29T06:23:17;3.25;;;0.40;;
68229;SDS011;55048;52.220;5.160;2022-12-29T06:25:44;11.48;;;0.95;;
68229;SDS011;55048;52.220;5.160;2022-12-29T06:28:11;8.45;;;0.80;;
68229;SDS011;55048;52.220;5.160;2022-12-29T06:30:36;6.65;;;0.60;;
68229;SDS011;55048;52.220;5.160;2022-12-29T06:33:03;5.45;;;0.80;;
68229;SDS011;55048;52.220;5.160;2022-12-29T06:35:28;12.68;;;0.70;;
68229;SDS011;55048;52.220;5.160;2022-12-29T06:37:54;13.60;;;1.10;;
68229;SDS011;55048;52.220;5.160;2022-12-29T06:40:19;6.57;;;0.77;;
68229;SDS011;55048;52.220;5.160;2022-12-29T06:43:08;9.05;;;0.80;;
68229;SDS011;55048;52.220;5.160;2022-12-29T06:45:52;13.95;;;1.20;;
68229;SDS011;55048;52.220;5.160;2022-12-29T06:48:17;5.93;;;0.70;;
68229;SDS011;55048;52.220;5.160;2022-12-29T06:50:43;15.23;;;1.20;;
68229;SDS011;55048;52.220;5.160;2022-12-29T06:53:08;7.60;;;0.60;;
68229;SDS011;55048;52.220;5.160;2022-12-29T06:55:33;8.35;;;0.77;;
68229;SDS011;55048;52.220;5.160;2022-12-29T06:57:59;4.88;;;0.57;;
68229;SDS011;55048;52.220;5.160;2022-12-29T07:00:26;7.15;;;0.60;;
68229;SDS011;55048;52.220;5.160;2022-12-29T07:02:51;6.72;;;0.88;;
68229;SDS011;55048;52.220;5.160;2022-12-29T07:05:19;11.95;;;1.23;;
68229;SDS011;55048;52.220;5.160;2022-12-29T07:07:44;11.90;;;1.15;;
68229;SDS011;55048;52.220;5.160;2022-12-29T07:10:10;9.68;;;1.35;;
68229;SDS011;55048;52.220;5.160;2022-12-29T07:12:35;14.43;;;1.08;;
68229;SDS011;55048;52.220;5.160;2022-12-29T07:15:01;13.43;;;1.55;;
68229;SDS011;55048;52.220;5.160;2022-12-29T07:17:26;11.43;;;1.30;;
68229;SDS011;55048;52.220;5.160;2022-12-29T07:19:51;14.35;;;1.10;;
68229;SDS011;55048;52.220;5.160;2022-12-29T07:22:17;8.27;;;0.77;;
68229;SDS011;55048;52.220;5.160;2022-12-29T07:24:42;11.18;;;0.80;;
68229;SDS011;55048;52.220;5.160;2022-12-29T07:27:08;11.55;;;0.95;;
68229;SDS011;55048;52.220;5.160;2022-12-29T07:29:33;11.30;;;1.10;;
68229;SDS011;55048;52.220;5.160;2022-12-29T07:31:59;7.32;;;0.70;;
68229;SDS011;55048;52.220;5.160;2022-12-29T07:34:24;10.90;;;1.00;;
68229;SDS011;55048;52.220;5.160;2022-12-29T07:36:50;5.38;;;0.50;;
68229;SDS011;55048;52.220;5.160;2022-12-29T07:39:15;5.15;;;0.40;;
68229;SDS011;55048;52.220;5.160;2022-12-29T07:41:40;8.07;;;0.70;;
68229;SDS011;55048;52.220;5.160;2022-12-29T07:44:10;8.88;;;0.88;;
68229;SDS011;55048;52.220;5.160;2022-12-29T07:46:54;5.40;;;0.60;;
68229;SDS011;55048;52.220;5.160;2022-12-29T07:49:19;9.57;;;1.00;;
68229;SDS011;55048;52.220;5.160;2022-12-29T07:51:45;9.48;;;0.70;;
68229;SDS011;55048;52.220;5.160;2022-12-29T07:54:10;3.28;;;0.47;;
68229;SDS011;55048;52.220;5.160;2022-12-29T07:56:37;4.40;;;0.60;;
68229;SDS011;55048;52.220;5.160;2022-12-29T07:59:03;8.57;;;0.90;;
68229;SDS011;55048;52.220;5.160;2022-12-29T08:01:28;10.85;;;1.08;;
68229;SDS011;55048;52.220;5.160;2022-12-29T08:03:53;5.47;;;0.90;;
68229;SDS011;55048;52.220;5.160;2022-12-29T08:06:19;5.45;;;0.80;;
68229;SDS011;55048;52.220;5.160;2022-12-29T08:08:45;3.55;;;0.57;;
68229;SDS011;55048;52.220;5.160;2022-12-29T08:11:10;7.88;;;1.33;;
68229;SDS011;55048;52.220;5.160;2022-12-29T08:13:36;10.80;;;1.33;;
68229;SDS011;55048;52.220;5.160;2022-12-29T08:16:01;15.95;;;1.17;;
68229;SDS011;55048;52.220;5.160;2022-12-29T08:18:26;4.30;;;0.70;;
68229;SDS011;55048;52.220;5.160;2022-12-29T08:20:52;7.25;;;0.85;;
68229;SDS011;55048;52.220;5.160;2022-12-29T08:23:17;12.30;;;0.77;;
68229;SDS011;55048;52.220;5.160;2022-12-29T08:25:43;7.78;;;0.80;;
68229;SDS011;55048;52.220;5.160;2022-12-29T08:28:08;10.73;;;0.90;;
68229;SDS011;55048;52.220;5.160;2022-12-29T08:30:33;15.55;;;1.13;;
68229;SDS011;55048;52.220;5.160;2022-12-29T08:33:00;11.52;;;1.00;;
68229;SDS011;55048;52.220;5.160;2022-12-29T08:35:26;8.45;;;0.70;;
68229;SDS011;55048;52.220;5.160;2022-12-29T08:37:51;8.73;;;0.77;;
68229;SDS011;55048;52.220;5.160;2022-12-29T08:40:17;14.32;;;0.82;;
68229;SDS011;55048;52.220;5.160;2022-12-29T08:42:42;9.40;;;1.00;;
68229;SDS011;55048;52.220;5.160;2022-12-29T08:45:08;14.20;;;1.00;;
68229;SDS011;55048;52.220;5.160;2022-12-29T08:47:34;11.75;;;1.63;;
68229;SDS011;55048;52.220;5.160;2022-12-29T08:49:59;14.23;;;1.33;;
68229;SDS011;55048;52.220;5.160;2022-12-29T08:52:24;8.30;;;0.70;;
68229;SDS011;55048;52.220;5.160;2022-12-29T08:54:51;11.43;;;1.17;;
68229;SDS011;55048;52.220;5.160;2022-12-29T08:57:17;8.23;;;1.00;;
68229;SDS011;55048;52.220;5.160;2022-12-29T08:59:55;7.55;;;0.80;;
68229;SDS011;55048;52.220;5.160;2022-12-29T09:02:20;5.43;;;0.73;;
68229;SDS011;55048;52.220;5.160;2022-12-29T09:04:45;8.35;;;0.73;;
68229;SDS011;55048;52.220;5.160;2022-12-29T09:07:11;9.50;;;0.80;;
68229;SDS011;55048;52.220;5.160;2022-12-29T09:09:36;7.60;;;0.80;;
68229;SDS011;55048;52.220;5.160;2022-12-29T09:12:01;9.38;;;1.90;;
68229;SDS011;55048;52.220;5.160;2022-12-29T09:14:27;10.45;;;1.00;;
68229;SDS011;55048;52.220;5.160;2022-12-29T09:16:53;5.70;;;1.08;;
68229;SDS011;55048;52.220;5.160;2022-12-29T09:19:38;10.38;;;0.88;;
68229;SDS011;55048;52.220;5.160;2022-12-29T09:22:03;6.82;;;0.90;;
68229;SDS011;55048;52.220;5.160;2022-12-29T09:24:29;7.22;;;1.10;;
68229;SDS011;55048;52.220;5.160;2022-12-29T09:26:54;8.02;;;1.05;;
68229;SDS011;55048;52.220;5.160;2022-12-29T09:29:20;5.82;;;0.73;;
68229;SDS011;55048;52.220;5.160;2022-12-29T09:31:45;5.15;;;0.77;;
68229;SDS011;55048;52.220;5.160;2022-12-29T09:34:11;11.80;;;1.20;;
68229;SDS011;55048;52.220;5.160;2022-12-29T09:36:36;13.35;;;0.85;;
68229;SDS011;55048;52.220;5.160;2022-12-29T09:39:01;10.00;;;1.00;;
68229;SDS011;55048;52.220;5.160;2022-12-29T09:41:29;7.28;;;0.65;;
68229;SDS011;55048;52.220;5.160;2022-12-29T09:46:39;10.80;;;1.30;;
68229;SDS011;55048;52.220;5.160;2022-12-29T09:49:26;3.60;;;0.90;;
68229;SDS011;55048;52.220;5.160;2022-12-29T09:52:03;7.82;;;0.70;;
68229;SDS011;55048;52.220;5.160;2022-12-29T09:57:25;7.05;;;0.70;;
68229;SDS011;55048;52.220;5.160;2022-12-29T09:59:56;8.48;;;0.93;;
68229;SDS011;55048;52.220;5.160;2022-12-29T10:07:52;7.07;;;0.90;;
68229;SDS011;55048;52.220;5.160;2022-12-29T10:10:31;5.07;;;0.85;;
68229;SDS011;55048;52.220;5.160;2022-12-29T10:22:05;8.63;;;0.95;;
68229;SDS011;55048;52.220;5.160;2022-12-29T10:24:40;14.68;;;0.80;;
68229;SDS011;55048;52.220;5.160;2022-12-29T10:27:12;7.95;;;0.70;;
68229;SDS011;55048;52.220;5.160;2022-12-29T10:29:42;10.80;;;1.15;;
68229;SDS011;55048;52.220;5.160;2022-12-29T10:32:20;10.85;;;1.00;;
68229;SDS011;55048;52.220;5.160;2022-12-29T10:34:49;11.68;;;1.48;;
68229;SDS011;55048;52.220;5.160;2022-12-29T10:37:30;7.88;;;0.68;;
68229;SDS011;55048;52.220;5.160;2022-12-29T10:40:12;5.82;;;0.60;;
68229;SDS011;55048;52.220;5.160;2022-12-29T10:42:45;12.95;;;1.00;;
68229;SDS011;55048;52.220;5.160;2022-12-29T10:45:15;12.95;;;1.05;;
68229;SDS011;55048;52.220;5.160;2022-12-29T10:47:49;11.27;;;1.77;;
68229;SDS011;55048;52.220;5.160;2022-12-29T10:50:18;16.13;;;1.70;;
68229;SDS011;55048;52.220;5.160;2022-12-29T10:52:44;11.50;;;1.15;;
68229;SDS011;55048;52.220;5.160;2022-12-29T10:55:15;11.57;;;1.70;;
68229;SDS011;55048;52.220;5.160;2022-12-29T10:57:47;14.18;;;1.63;;
68229;SDS011;55048;52.220;5.160;2022-12-29T11:00:17;8.13;;;1.13;;
68229;SDS011;55048;52.220;5.160;2022-12-29T11:05:52;12.82;;;1.15;;
68229;SDS011;55048;52.220;5.160;2022-12-29T11:08:25;13.55;;;1.35;;
68229;SDS011;55048;52.220;5.160;2022-12-29T11:11:02;17.92;;;1.40;;
68229;SDS011;55048;52.220;5.160;2022-12-29T11:13:30;19.45;;;1.50;;
68229;SDS011;55048;52.220;5.160;2022-12-29T11:15:57;16.02;;;1.30;;
68229;SDS011;55048;52.220;5.160;2022-12-29T11:23:58;16.73;;;1.40;;
68229;SDS011;55048;52.220;5.160;2022-12-29T11:26:29;19.77;;;2.60;;
68229;SDS011;55048;52.220;5.160;2022-12-29T11:31:43;9.52;;;1.33;;
68229;SDS011;55048;52.220;5.160;2022-12-29T11:34:17;24.45;;;2.30;;
68229;SDS011;55048;52.220;5.160;2022-12-29T11:36:45;10.57;;;1.50;;
68229;SDS011;55048;52.220;5.160;2022-12-29T11:42:37;16.33;;;1.50;;
68229;SDS011;55048;52.220;5.160;2022-12-29T11:45:06;24.33;;;1.83;;
68229;SDS011;55048;52.220;5.160;2022-12-29T11:47:41;13.50;;;1.10;;
68229;SDS011;55048;52.220;5.160;2022-12-29T11:50:15;14.75;;;1.45;;
68229;SDS011;55048;52.220;5.160;2022-12-29T11:53:02;17.08;;;1.65;;
68229;SDS011;55048;52.220;5.160;2022-12-29T11:55:31;8.32;;;1.00;;
68229;SDS011;55048;52.220;5.160;2022-12-29T11:57:57;12.35;;;1.60;;
68229;SDS011;55048;52.220;5.160;2022-12-29T12:00:27;15.05;;;1.02;;
68229;SDS011;55048;52.220;5.160;2022-12-29T12:03:13;9.27;;;1.23;;
68229;SDS011;55048;52.220;5.160;2022-12-29T12:13:42;13.23;;;1.27;;
68229;SDS011;55048;52.220;5.160;2022-12-29T12:16:20;15.18;;;1.60;;
68229;SDS011;55048;52.220;5.160;2022-12-29T12:18:55;21.55;;;1.92;;
68229;SDS011;55048;52.220;5.160;2022-12-29T12:21:25;13.75;;;1.92;;
68229;SDS011;55048;52.220;5.160;2022-12-29T12:26:35;18.33;;;1.67;;
68229;SDS011;55048;52.220;5.160;2022-12-29T12:29:12;21.15;;;1.90;;
68229;SDS011;55048;52.220;5.160;2022-12-29T12:34:51;12.23;;;1.42;;
68229;SDS011;55048;52.220;5.160;2022-12-29T12:43:12;12.80;;;1.30;;
68229;SDS011;55048;52.220;5.160;2022-12-29T12:51:03;9.05;;;1.30;;
68229;SDS011;55048;52.220;5.160;2022-12-29T12:54:29;14.05;;;0.80;;
68229;SDS011;55048;52.220;5.160;2022-12-29T12:56:55;10.00;;;1.00;;
68229;SDS011;55048;52.220;5.160;2022-12-29T13:04:48;15.18;;;1.23;;
68229;SDS011;55048;52.220;5.160;2022-12-29T13:10:01;16.85;;;1.30;;
68229;SDS011;55048;52.220;5.160;2022-12-29T13:12:55;11.15;;;2.20;;
68229;SDS011;55048;52.220;5.160;2022-12-29T13:20:58;8.50;;;1.23;;
68229;SDS011;55048;52.220;5.160;2022-12-29T13:24:07;7.70;;;0.60;;
68229;SDS011;55048;52.220;5.160;2022-12-29T13:26:44;7.20;;;0.77;;
68229;SDS011;55048;52.220;5.160;2022-12-29T13:29:23;11.65;;;0.80;;
68229;SDS011;55048;52.220;5.160;2022-12-29T13:37:26;12.88;;;0.98;;
68229;SDS011;55048;52.220;5.160;2022-12-29T13:39:55;12.80;;;1.05;;
68229;SDS011;55048;52.220;5.160;2022-12-29T13:42:25;7.38;;;0.90;;
68229;SDS011;55048;52.220;5.160;2022-12-29T13:44:57;13.55;;;1.10;;
68229;SDS011;55048;52.220;5.160;2022-12-29T13:49:56;10.50;;;1.00;;
68229;SDS011;55048;52.220;5.160;2022-12-29T13:52:27;10.27;;;0.90;;
68229;SDS011;55048;52.220;5.160;2022-12-29T13:55:18;8.73;;;1.00;;
68229;SDS011;55048;52.220;5.160;2022-12-29T14:08:43;12.50;;;1.27;;
68229;SDS011;55048;52.220;5.160;2022-12-29T14:11:10;11.43;;;1.10;;
68229;SDS011;55048;52.220;5.160;2022-12-29T14:13:37;14.43;;;1.52;;
68229;SDS011;55048;52.220;5.160;2022-12-29T14:16:05;10.73;;;1.02;;
68229;SDS011;55048;52.220;5.160;2022-12-29T14:18:31;10.80;;;1.30;;
68229;SDS011;55048;52.220;5.160;2022-12-29T14:23:47;9.68;;;0.90;;
68229;SDS011;55048;52.220;5.160;2022-12-29T14:26:32;7.82;;;1.42;;
68229;SDS011;55048;52.220;5.160;2022-12-29T14:34:25;6.93;;;0.80;;
68229;SDS011;55048;52.220;5.160;2022-12-29T14:58:28;2.35;;;0.65;;
68229;SDS011;55048;52.220;5.160;2022-12-29T15:00:56;11.57;;;1.50;;
68229;SDS011;55048;52.220;5.160;2022-12-29T15:03:24;5.00;;;1.13;;
68229;SDS011;55048;52.220;5.160;2022-12-29T15:08:52;5.00;;;0.80;;
68229;SDS011;55048;52.220;5.160;2022-12-29T15:14:02;17.35;;;2.80;;
68229;SDS011;55048;52.220;5.160;2022-12-29T15:16:32;9.77;;;2.40;;
68229;SDS011;55048;52.220;5.160;2022-12-29T15:19:00;9.50;;;1.10;;
68229;SDS011;55048;52.220;5.160;2022-12-29T15:21:30;14.98;;;1.80;;
68229;SDS011;55048;52.220;5.160;2022-12-29T15:23:57;14.95;;;1.35;;
68229;SDS011;55048;52.220;5.160;2022-12-29T15:26:23;10.55;;;1.10;;
68229;SDS011;55048;52.220;5.160;2022-12-29T15:28:52;14.05;;;1.17;;
68229;SDS011;55048;52.220;5.160;2022-12-29T15:31:20;9.80;;;1.55;;
68229;SDS011;55048;52.220;5.160;2022-12-29T15:33:49;8.07;;;1.10;;
68229;SDS011;55048;52.220;5.160;2022-12-29T15:36:21;6.63;;;0.70;;
68229;SDS011;55048;52.220;5.160;2022-12-29T15:38:51;4.78;;;0.80;;
68229;SDS011;55048;52.220;5.160;2022-12-29T15:41:32;7.80;;;1.52;;
68229;SDS011;55048;52.220;5.160;2022-12-29T15:44:29;16.38;;;2.08;;
68229;SDS011;55048;52.220;5.160;2022-12-29T15:47:04;5.72;;;0.95;;
68229;SDS011;55048;52.220;5.160;2022-12-29T15:49:31;10.50;;;1.20;;
68229;SDS011;55048;52.220;5.160;2022-12-29T15:51:57;8.07;;;1.20;;
68229;SDS011;55048;52.220;5.160;2022-12-29T15:54:24;7.70;;;0.98;;
68229;SDS011;55048;52.220;5.160;2022-12-29T15:56:52;7.60;;;0.82;;
68229;SDS011;55048;52.220;5.160;2022-12-29T15:59:25;5.63;;;1.10;;
68229;SDS011;55048;52.220;5.160;2022-12-29T16:01:53;12.93;;;1.58;;
68229;SDS011;55048;52.220;5.160;2022-12-29T16:04:20;6.20;;;1.30;;
68229;SDS011;55048;52.220;5.160;2022-12-29T16:09:34;8.00;;;0.82;;
68229;SDS011;55048;52.220;5.160;2022-12-29T16:12:15;10.55;;;1.10;;
68229;SDS011;55048;52.220;5.160;2022-12-29T16:14:45;11.23;;;1.52;;
68229;SDS011;55048;52.220;5.160;2022-12-29T16:17:13;6.35;;;0.88;;
68229;SDS011;55048;52.220;5.160;2022-12-29T16:19:47;3.33;;;0.60;;
68229;SDS011;55048;52.220;5.160;2022-12-29T16:22:42;6.95;;;1.00;;
68229;SDS011;55048;52.220;5.160;2022-12-29T16:25:07;6.28;;;0.98;;
68229;SDS011;55048;52.220;5.160;2022-12-29T16:27:36;7.90;;;1.00;;
68229;SDS011;55048;52.220;5.160;2022-12-29T16:30:06;8.95;;;1.45;;
68229;SDS011;55048;52.220;5.160;2022-12-29T16:32:45;6.20;;;0.80;;
68229;SDS011;55048;52.220;5.160;2022-12-29T16:35:18;9.07;;;1.10;;
68229;SDS011;55048;52.220;5.160;2022-12-29T16:37:44;9.48;;;1.27;;
68229;SDS011;55048;52.220;5.160;2022-12-29T16:40:22;7.70;;;1.13;;
68229;SDS011;55048;52.220;5.160;2022-12-29T16:42:49;7.07;;;1.30;;
68229;SDS011;55048;52.220;5.160;2022-12-29T16:47:43;10.70;;;1.17;;
68229;SDS011;55048;52.220;5.160;2022-12-29T16:50:12;10.23;;;0.93;;
68229;SDS011;55048;52.220;5.160;2022-12-29T16:52:42;9.68;;;1.00;;
68229;SDS011;55048;52.220;5.160;2022-12-29T16:55:14;12.77;;;1.30;;
68229;SDS011;55048;52.220;5.160;2022-12-29T16:57:41;8.15;;;1.00;;
68229;SDS011;55048;52.220;5.160;2022-12-29T17:02:44;12.57;;;1.30;;
68229;SDS011;55048;52.220;5.160;2022-12-29T17:05:13;5.00;;;1.10;;
68229;SDS011;55048;52.220;5.160;2022-12-29T17:07:40;7.60;;;1.55;;
68229;SDS011;55048;52.220;5.160;2022-12-29T17:10:05;7.30;;;1.00;;
68229;SDS011;55048;52.220;5.160;2022-12-29T17:12:31;8.70;;;1.67;;
68229;SDS011;55048;52.220;5.160;2022-12-29T17:15:03;7.15;;;0.75;;
68229;SDS011;55048;52.220;5.160;2022-12-29T17:17:40;7.57;;;1.10;;
68229;SDS011;55048;52.220;5.160;2022-12-29T17:22:39;5.43;;;0.90;;
68229;SDS011;55048;52.220;5.160;2022-12-29T17:25:04;8.77;;;1.35;;
68229;SDS011;55048;52.220;5.160;2022-12-29T17:27:31;4.65;;;0.73;;
68229;SDS011;55048;52.220;5.160;2022-12-29T17:30:08;9.80;;;1.25;;
68229;SDS011;55048;52.220;5.160;2022-12-29T17:32:37;9.07;;;1.48;;
68229;SDS011;55048;52.220;5.160;2022-12-29T17:35:03;4.55;;;0.63;;
68229;SDS011;55048;52.220;5.160;2022-12-29T17:37:30;7.60;;;1.00;;
68229;SDS011;55048;52.220;5.160;2022-12-29T17:39:58;6.88;;;0.85;;
68229;SDS011;55048;52.220;5.160;2022-12-29T17:42:23;6.70;;;0.70;;
68229;SDS011;55048;52.220;5.160;2022-12-29T17:44:48;9.57;;;1.10;;
68229;SDS011;55048;52.220;5.160;2022-12-29T17:47:14;7.93;;;0.82;;
68229;SDS011;55048;52.220;5.160;2022-12-29T17:49:40;7.63;;;0.85;;
68229;SDS011;55048;52.220;5.160;2022-12-29T17:52:10;7.35;;;1.33;;
68229;SDS011;55048;52.220;5.160;2022-12-29T17:54:36;11.38;;;1.00;;
68229;SDS011;55048;52.220;5.160;2022-12-29T17:57:15;22.50;;;3.03;;